Hamletsburg, Illinois
Current Conditions -  °F | °C
As of 6:35 PM on Monday 24 Nov 2014 (Local Time) from KM30 Reporting Station
Overcast Overcast  
Wind Chill: 47°   Ceiling: 7000
Heat Index: 49°   Visibility: 10mi
Dew Point: 35°   Wind: 5mph
Humidity: 58%   Direction: 230°SW
Pressure: 29.93"   Gusts: NA
Location:  37.14°N, 88.45°W
Report Text: KM30 250035Z AUTO 23004KT 10SM OVC070 10/02 A2993 RMK AO2 T00950015
Loading
Personal Weather Stations






























Interactive Weather Map New forecast layout! Learn more

10-Day Weather Forecast

Advertisements
Track Severe Weather on mobile